sensor_id;sensor_type;location;lat;lon;timestamp;P1;durP1;ratioP1;P2;durP2;ratioP2
58946;SDS011;44724;52.332;4.978;2022-08-19T00:00:48;6.70;;;5.70;;
58946;SDS011;44724;52.332;4.978;2022-08-19T00:03:15;7.55;;;5.55;;
58946;SDS011;44724;52.332;4.978;2022-08-19T00:05:40;11.00;;;6.18;;
58946;SDS011;44724;52.332;4.978;2022-08-19T00:08:07;9.43;;;5.65;;
58946;SDS011;44724;52.332;4.978;2022-08-19T00:10:32;9.57;;;7.00;;
58946;SDS011;44724;52.332;4.978;2022-08-19T00:12:59;9.13;;;6.15;;
58946;SDS011;44724;52.332;4.978;2022-08-19T00:15:24;7.63;;;6.15;;
58946;SDS011;44724;52.332;4.978;2022-08-19T00:17:50;9.88;;;6.18;;
58946;SDS011;44724;52.332;4.978;2022-08-19T00:20:17;7.80;;;6.45;;
58946;SDS011;44724;52.332;4.978;2022-08-19T00:22:44;7.13;;;6.35;;
58946;SDS011;44724;52.332;4.978;2022-08-19T00:25:10;8.82;;;6.65;;
58946;SDS011;44724;52.332;4.978;2022-08-19T00:27:36;9.82;;;6.95;;
58946;SDS011;44724;52.332;4.978;2022-08-19T00:30:01;10.60;;;6.93;;
58946;SDS011;44724;52.332;4.978;2022-08-19T00:32:29;11.18;;;7.00;;
58946;SDS011;44724;52.332;4.978;2022-08-19T00:34:54;12.73;;;7.75;;
58946;SDS011;44724;52.332;4.978;2022-08-19T00:37:21;14.35;;;8.48;;
58946;SDS011;44724;52.332;4.978;2022-08-19T00:39:48;14.35;;;8.85;;
58946;SDS011;44724;52.332;4.978;2022-08-19T00:42:14;11.80;;;8.43;;
58946;SDS011;44724;52.332;4.978;2022-08-19T00:44:40;13.77;;;9.07;;
58946;SDS011;44724;52.332;4.978;2022-08-19T00:47:06;15.82;;;9.10;;
58946;SDS011;44724;52.332;4.978;2022-08-19T00:49:35;14.75;;;8.43;;
58946;SDS011;44724;52.332;4.978;2022-08-19T00:52:32;13.10;;;8.60;;
58946;SDS011;44724;52.332;4.978;2022-08-19T00:54:59;14.05;;;8.60;;
58946;SDS011;44724;52.332;4.978;2022-08-19T00:57:34;14.27;;;8.90;;
58946;SDS011;44724;52.332;4.978;2022-08-19T01:00:05;13.48;;;8.68;;
58946;SDS011;44724;52.332;4.978;2022-08-19T01:05:05;13.02;;;8.10;;
58946;SDS011;44724;52.332;4.978;2022-08-19T01:07:34;13.38;;;8.55;;
58946;SDS011;44724;52.332;4.978;2022-08-19T01:10:00;13.43;;;8.77;;
58946;SDS011;44724;52.332;4.978;2022-08-19T01:12:26;14.90;;;9.32;;
58946;SDS011;44724;52.332;4.978;2022-08-19T01:14:52;12.73;;;8.30;;
58946;SDS011;44724;52.332;4.978;2022-08-19T01:17:19;13.35;;;8.52;;
58946;SDS011;44724;52.332;4.978;2022-08-19T01:19:45;12.85;;;8.85;;
58946;SDS011;44724;52.332;4.978;2022-08-19T01:22:18;13.98;;;8.75;;
58946;SDS011;44724;52.332;4.978;2022-08-19T01:24:57;16.27;;;9.93;;
58946;SDS011;44724;52.332;4.978;2022-08-19T01:27:22;13.80;;;8.95;;
58946;SDS011;44724;52.332;4.978;2022-08-19T01:29:48;14.20;;;9.32;;
58946;SDS011;44724;52.332;4.978;2022-08-19T01:32:14;19.15;;;11.10;;
58946;SDS011;44724;52.332;4.978;2022-08-19T01:34:41;19.52;;;11.77;;
58946;SDS011;44724;52.332;4.978;2022-08-19T01:37:08;22.48;;;11.77;;
58946;SDS011;44724;52.332;4.978;2022-08-19T01:39:36;21.13;;;11.48;;
58946;SDS011;44724;52.332;4.978;2022-08-19T01:42:03;19.83;;;10.35;;
58946;SDS011;44724;52.332;4.978;2022-08-19T01:44:31;20.90;;;11.07;;
58946;SDS011;44724;52.332;4.978;2022-08-19T01:46:56;17.88;;;10.98;;
58946;SDS011;44724;52.332;4.978;2022-08-19T01:49:22;21.13;;;11.82;;
58946;SDS011;44724;52.332;4.978;2022-08-19T01:51:49;24.75;;;12.23;;
58946;SDS011;44724;52.332;4.978;2022-08-19T01:54:15;23.40;;;12.55;;
58946;SDS011;44724;52.332;4.978;2022-08-19T01:56:43;24.65;;;13.38;;
58946;SDS011;44724;52.332;4.978;2022-08-19T01:59:10;30.00;;;14.50;;
58946;SDS011;44724;52.332;4.978;2022-08-19T02:01:39;31.77;;;15.10;;
58946;SDS011;44724;52.332;4.978;2022-08-19T02:04:04;30.33;;;15.23;;
58946;SDS011;44724;52.332;4.978;2022-08-19T02:06:30;25.00;;;13.10;;
58946;SDS011;44724;52.332;4.978;2022-08-19T02:08:57;27.50;;;13.55;;
58946;SDS011;44724;52.332;4.978;2022-08-19T02:11:24;29.48;;;13.38;;
58946;SDS011;44724;52.332;4.978;2022-08-19T02:13:52;24.92;;;12.82;;
58946;SDS011;44724;52.332;4.978;2022-08-19T02:16:19;26.92;;;12.70;;
58946;SDS011;44724;52.332;4.978;2022-08-19T02:18:45;24.73;;;12.68;;
58946;SDS011;44724;52.332;4.978;2022-08-19T02:21:13;24.13;;;13.80;;
58946;SDS011;44724;52.332;4.978;2022-08-19T02:23:40;23.65;;;12.25;;
58946;SDS011;44724;52.332;4.978;2022-08-19T02:26:06;23.88;;;12.90;;
58946;SDS011;44724;52.332;4.978;2022-08-19T02:28:33;25.70;;;12.52;;
58946;SDS011;44724;52.332;4.978;2022-08-19T02:30:58;24.75;;;12.55;;
58946;SDS011;44724;52.332;4.978;2022-08-19T02:33:25;23.52;;;12.00;;
58946;SDS011;44724;52.332;4.978;2022-08-19T02:35:51;24.90;;;13.18;;
58946;SDS011;44724;52.332;4.978;2022-08-19T02:38:17;25.90;;;12.85;;
58946;SDS011;44724;52.332;4.978;2022-08-19T02:40:56;24.58;;;12.55;;
58946;SDS011;44724;52.332;4.978;2022-08-19T02:43:25;23.30;;;12.07;;
58946;SDS011;44724;52.332;4.978;2022-08-19T02:45:52;22.42;;;11.95;;
58946;SDS011;44724;52.332;4.978;2022-08-19T02:48:18;20.95;;;12.15;;
58946;SDS011;44724;52.332;4.978;2022-08-19T02:50:46;23.20;;;12.15;;
58946;SDS011;44724;52.332;4.978;2022-08-19T02:53:12;23.58;;;12.73;;
58946;SDS011;44724;52.332;4.978;2022-08-19T02:55:45;24.13;;;12.02;;
58946;SDS011;44724;52.332;4.978;2022-08-19T02:58:13;22.80;;;12.13;;
58946;SDS011;44724;52.332;4.978;2022-08-19T03:00:43;24.70;;;12.20;;
58946;SDS011;44724;52.332;4.978;2022-08-19T03:03:09;27.02;;;13.45;;
58946;SDS011;44724;52.332;4.978;2022-08-19T03:05:35;23.08;;;11.70;;
58946;SDS011;44724;52.332;4.978;2022-08-19T03:08:01;24.38;;;13.60;;
58946;SDS011;44724;52.332;4.978;2022-08-19T03:10:26;22.80;;;12.02;;
58946;SDS011;44724;52.332;4.978;2022-08-19T03:12:52;25.33;;;12.10;;
58946;SDS011;44724;52.332;4.978;2022-08-19T03:15:17;23.45;;;12.43;;
58946;SDS011;44724;52.332;4.978;2022-08-19T03:17:42;26.02;;;13.13;;
58946;SDS011;44724;52.332;4.978;2022-08-19T03:20:08;26.85;;;13.85;;
58946;SDS011;44724;52.332;4.978;2022-08-19T03:22:33;25.95;;;12.27;;
58946;SDS011;44724;52.332;4.978;2022-08-19T03:24:59;25.50;;;12.48;;
58946;SDS011;44724;52.332;4.978;2022-08-19T03:27:24;24.58;;;13.18;;
58946;SDS011;44724;52.332;4.978;2022-08-19T03:29:50;28.80;;;13.75;;
58946;SDS011;44724;52.332;4.978;2022-08-19T03:32:16;26.80;;;13.18;;
58946;SDS011;44724;52.332;4.978;2022-08-19T03:34:41;27.10;;;13.05;;
58946;SDS011;44724;52.332;4.978;2022-08-19T03:37:08;28.48;;;13.73;;
58946;SDS011;44724;52.332;4.978;2022-08-19T03:39:37;27.55;;;13.68;;
58946;SDS011;44724;52.332;4.978;2022-08-19T03:42:04;30.98;;;14.32;;
58946;SDS011;44724;52.332;4.978;2022-08-19T03:44:30;29.20;;;14.63;;
58946;SDS011;44724;52.332;4.978;2022-08-19T03:46:58;28.50;;;14.75;;
58946;SDS011;44724;52.332;4.978;2022-08-19T03:49:25;30.02;;;14.05;;
58946;SDS011;44724;52.332;4.978;2022-08-19T03:51:53;41.30;;;17.52;;
58946;SDS011;44724;52.332;4.978;2022-08-19T03:54:21;29.35;;;15.05;;
58946;SDS011;44724;52.332;4.978;2022-08-19T03:56:49;31.27;;;14.25;;
58946;SDS011;44724;52.332;4.978;2022-08-19T03:59:21;30.02;;;13.30;;
58946;SDS011;44724;52.332;4.978;2022-08-19T04:01:53;28.65;;;14.57;;
58946;SDS011;44724;52.332;4.978;2022-08-19T04:04:20;32.75;;;14.93;;
58946;SDS011;44724;52.332;4.978;2022-08-19T04:06:46;31.88;;;14.93;;
58946;SDS011;44724;52.332;4.978;2022-08-19T04:09:12;40.85;;;14.90;;
58946;SDS011;44724;52.332;4.978;2022-08-19T04:11:46;31.10;;;14.18;;
58946;SDS011;44724;52.332;4.978;2022-08-19T04:14:15;30.63;;;14.77;;
58946;SDS011;44724;52.332;4.978;2022-08-19T04:16:46;31.42;;;15.30;;
58946;SDS011;44724;52.332;4.978;2022-08-19T04:19:13;40.28;;;17.15;;
58946;SDS011;44724;52.332;4.978;2022-08-19T04:21:42;37.90;;;17.48;;
58946;SDS011;44724;52.332;4.978;2022-08-19T04:24:11;46.33;;;18.65;;
58946;SDS011;44724;52.332;4.978;2022-08-19T04:26:37;45.28;;;19.27;;
58946;SDS011;44724;52.332;4.978;2022-08-19T04:29:08;44.75;;;18.60;;
58946;SDS011;44724;52.332;4.978;2022-08-19T04:31:39;48.38;;;19.83;;
58946;SDS011;44724;52.332;4.978;2022-08-19T04:34:08;45.95;;;19.13;;
58946;SDS011;44724;52.332;4.978;2022-08-19T04:36:36;50.75;;;19.20;;
58946;SDS011;44724;52.332;4.978;2022-08-19T04:39:06;45.35;;;19.38;;
58946;SDS011;44724;52.332;4.978;2022-08-19T04:41:34;46.72;;;18.85;;
58946;SDS011;44724;52.332;4.978;2022-08-19T04:44:19;52.78;;;20.75;;
58946;SDS011;44724;52.332;4.978;2022-08-19T04:46:46;56.72;;;21.88;;
58946;SDS011;44724;52.332;4.978;2022-08-19T04:49:13;58.70;;;21.98;;
58946;SDS011;44724;52.332;4.978;2022-08-19T04:51:41;55.15;;;22.75;;
58946;SDS011;44724;52.332;4.978;2022-08-19T04:54:07;55.30;;;20.15;;
58946;SDS011;44724;52.332;4.978;2022-08-19T04:56:33;63.72;;;22.65;;
58946;SDS011;44724;52.332;4.978;2022-08-19T04:58:59;54.15;;;22.27;;
58946;SDS011;44724;52.332;4.978;2022-08-19T05:01:29;52.90;;;20.88;;
58946;SDS011;44724;52.332;4.978;2022-08-19T05:04:02;67.00;;;23.75;;
58946;SDS011;44724;52.332;4.978;2022-08-19T05:06:30;66.35;;;23.85;;
58946;SDS011;44724;52.332;4.978;2022-08-19T05:08:58;60.70;;;24.65;;
58946;SDS011;44724;52.332;4.978;2022-08-19T05:11:25;67.22;;;24.77;;
58946;SDS011;44724;52.332;4.978;2022-08-19T05:13:52;68.32;;;24.02;;
58946;SDS011;44724;52.332;4.978;2022-08-19T05:16:19;72.57;;;24.23;;
58946;SDS011;44724;52.332;4.978;2022-08-19T05:18:46;61.03;;;23.17;;
58946;SDS011;44724;52.332;4.978;2022-08-19T05:21:31;62.70;;;24.05;;
58946;SDS011;44724;52.332;4.978;2022-08-19T05:24:15;66.40;;;23.60;;
58946;SDS011;44724;52.332;4.978;2022-08-19T05:26:43;62.00;;;23.73;;
58946;SDS011;44724;52.332;4.978;2022-08-19T05:29:11;59.78;;;24.45;;
58946;SDS011;44724;52.332;4.978;2022-08-19T05:31:38;55.83;;;24.33;;
58946;SDS011;44724;52.332;4.978;2022-08-19T05:34:05;55.10;;;23.13;;
58946;SDS011;44724;52.332;4.978;2022-08-19T05:36:35;55.13;;;24.02;;
58946;SDS011;44724;52.332;4.978;2022-08-19T05:39:06;54.33;;;23.05;;
58946;SDS011;44724;52.332;4.978;2022-08-19T05:41:34;51.65;;;24.40;;
58946;SDS011;44724;52.332;4.978;2022-08-19T05:44:06;56.30;;;24.38;;
58946;SDS011;44724;52.332;4.978;2022-08-19T05:46:34;52.40;;;24.40;;
58946;SDS011;44724;52.332;4.978;2022-08-19T05:49:00;51.25;;;24.58;;
58946;SDS011;44724;52.332;4.978;2022-08-19T05:51:26;53.88;;;25.25;;
58946;SDS011;44724;52.332;4.978;2022-08-19T05:53:51;53.00;;;24.83;;
58946;SDS011;44724;52.332;4.978;2022-08-19T05:56:17;51.28;;;23.17;;
58946;SDS011;44724;52.332;4.978;2022-08-19T05:58:43;52.03;;;25.20;;
58946;SDS011;44724;52.332;4.978;2022-08-19T06:01:19;48.53;;;24.08;;
58946;SDS011;44724;52.332;4.978;2022-08-19T06:03:45;47.70;;;25.13;;
58946;SDS011;44724;52.332;4.978;2022-08-19T06:06:13;53.83;;;25.20;;
58946;SDS011;44724;52.332;4.978;2022-08-19T06:08:40;54.85;;;25.33;;
58946;SDS011;44724;52.332;4.978;2022-08-19T06:13:40;59.63;;;27.95;;
58946;SDS011;44724;52.332;4.978;2022-08-19T06:16:06;63.88;;;27.45;;
58946;SDS011;44724;52.332;4.978;2022-08-19T06:18:31;68.03;;;26.67;;
58946;SDS011;44724;52.332;4.978;2022-08-19T06:20:58;68.22;;;28.50;;
58946;SDS011;44724;52.332;4.978;2022-08-19T06:23:23;64.95;;;27.30;;
58946;SDS011;44724;52.332;4.978;2022-08-19T06:25:48;71.60;;;26.98;;
58946;SDS011;44724;52.332;4.978;2022-08-19T06:28:14;68.75;;;26.30;;
58946;SDS011;44724;52.332;4.978;2022-08-19T06:30:39;73.28;;;28.08;;
58946;SDS011;44724;52.332;4.978;2022-08-19T06:33:04;65.80;;;27.02;;
58946;SDS011;44724;52.332;4.978;2022-08-19T06:35:30;66.80;;;27.45;;
58946;SDS011;44724;52.332;4.978;2022-08-19T06:37:55;64.25;;;25.67;;
58946;SDS011;44724;52.332;4.978;2022-08-19T06:40:21;62.85;;;26.13;;
58946;SDS011;44724;52.332;4.978;2022-08-19T06:42:46;59.35;;;26.58;;
58946;SDS011;44724;52.332;4.978;2022-08-19T06:45:12;63.30;;;28.27;;
58946;SDS011;44724;52.332;4.978;2022-08-19T06:47:37;58.40;;;23.73;;
58946;SDS011;44724;52.332;4.978;2022-08-19T06:50:03;58.72;;;25.83;;
58946;SDS011;44724;52.332;4.978;2022-08-19T06:52:30;61.95;;;26.20;;
58946;SDS011;44724;52.332;4.978;2022-08-19T06:54:57;59.47;;;27.42;;
58946;SDS011;44724;52.332;4.978;2022-08-19T06:57:23;56.10;;;26.73;;
58946;SDS011;44724;52.332;4.978;2022-08-19T06:59:49;55.85;;;24.20;;
58946;SDS011;44724;52.332;4.978;2022-08-19T07:02:14;59.13;;;26.08;;
58946;SDS011;44724;52.332;4.978;2022-08-19T07:04:40;58.67;;;26.20;;
58946;SDS011;44724;52.332;4.978;2022-08-19T07:07:06;55.63;;;26.58;;
58946;SDS011;44724;52.332;4.978;2022-08-19T07:09:34;56.22;;;26.38;;
58946;SDS011;44724;52.332;4.978;2022-08-19T07:12:02;54.40;;;25.15;;
58946;SDS011;44724;52.332;4.978;2022-08-19T07:14:29;54.72;;;26.20;;
58946;SDS011;44724;52.332;4.978;2022-08-19T07:16:55;51.40;;;25.63;;
58946;SDS011;44724;52.332;4.978;2022-08-19T07:19:22;56.97;;;26.77;;
58946;SDS011;44724;52.332;4.978;2022-08-19T07:21:52;51.08;;;24.85;;
58946;SDS011;44724;52.332;4.978;2022-08-19T07:24:18;47.72;;;23.65;;
58946;SDS011;44724;52.332;4.978;2022-08-19T07:26:45;51.30;;;25.83;;
58946;SDS011;44724;52.332;4.978;2022-08-19T07:29:11;52.95;;;27.60;;
58946;SDS011;44724;52.332;4.978;2022-08-19T07:31:37;53.40;;;25.92;;
58946;SDS011;44724;52.332;4.978;2022-08-19T07:34:04;53.47;;;25.60;;
58946;SDS011;44724;52.332;4.978;2022-08-19T07:36:35;49.42;;;26.02;;
58946;SDS011;44724;52.332;4.978;2022-08-19T07:39:06;44.95;;;24.65;;
58946;SDS011;44724;52.332;4.978;2022-08-19T07:41:36;47.10;;;23.65;;
58946;SDS011;44724;52.332;4.978;2022-08-19T07:44:03;47.55;;;25.02;;
58946;SDS011;44724;52.332;4.978;2022-08-19T07:46:30;44.25;;;22.48;;
58946;SDS011;44724;52.332;4.978;2022-08-19T07:48:57;42.95;;;22.35;;
58946;SDS011;44724;52.332;4.978;2022-08-19T07:51:22;43.00;;;23.38;;
58946;SDS011;44724;52.332;4.978;2022-08-19T07:53:48;40.17;;;21.85;;
58946;SDS011;44724;52.332;4.978;2022-08-19T07:56:15;37.72;;;21.20;;
58946;SDS011;44724;52.332;4.978;2022-08-19T07:58:43;39.60;;;20.55;;
58946;SDS011;44724;52.332;4.978;2022-08-19T08:01:14;36.25;;;18.55;;
58946;SDS011;44724;52.332;4.978;2022-08-19T08:03:43;34.40;;;19.33;;
58946;SDS011;44724;52.332;4.978;2022-08-19T08:06:27;34.30;;;18.90;;
58946;SDS011;44724;52.332;4.978;2022-08-19T08:09:12;40.60;;;20.10;;
58946;SDS011;44724;52.332;4.978;2022-08-19T08:11:52;33.95;;;18.95;;
58946;SDS011;44724;52.332;4.978;2022-08-19T08:14:21;32.33;;;19.73;;
58946;SDS011;44724;52.332;4.978;2022-08-19T08:16:49;29.95;;;18.40;;
58946;SDS011;44724;52.332;4.978;2022-08-19T08:19:16;30.38;;;18.13;;
58946;SDS011;44724;52.332;4.978;2022-08-19T08:21:44;32.55;;;19.83;;
58946;SDS011;44724;52.332;4.978;2022-08-19T08:24:09;28.45;;;18.58;;
58946;SDS011;44724;52.332;4.978;2022-08-19T08:26:36;34.42;;;20.10;;
58946;SDS011;44724;52.332;4.978;2022-08-19T08:29:01;35.03;;;19.67;;
58946;SDS011;44724;52.332;4.978;2022-08-19T08:31:27;31.48;;;18.42;;
58946;SDS011;44724;52.332;4.978;2022-08-19T08:33:53;30.52;;;17.30;;
58946;SDS011;44724;52.332;4.978;2022-08-19T08:36:18;30.75;;;17.95;;
58946;SDS011;44724;52.332;4.978;2022-08-19T08:38:44;29.38;;;18.63;;
58946;SDS011;44724;52.332;4.978;2022-08-19T08:43:45;25.88;;;16.90;;
58946;SDS011;44724;52.332;4.978;2022-08-19T08:46:17;24.70;;;16.52;;
58946;SDS011;44724;52.332;4.978;2022-08-19T08:48:51;29.23;;;16.13;;
58946;SDS011;44724;52.332;4.978;2022-08-19T08:51:34;26.30;;;16.17;;
58946;SDS011;44724;52.332;4.978;2022-08-19T08:54:08;28.77;;;15.75;;
58946;SDS011;44724;52.332;4.978;2022-08-19T08:56:38;21.63;;;13.65;;
58946;SDS011;44724;52.332;4.978;2022-08-19T08:59:06;19.42;;;14.13;;
58946;SDS011;44724;52.332;4.978;2022-08-19T09:01:35;19.65;;;13.73;;
58946;SDS011;44724;52.332;4.978;2022-08-19T09:04:05;16.85;;;12.63;;
58946;SDS011;44724;52.332;4.978;2022-08-19T09:09:46;19.27;;;12.90;;
58946;SDS011;44724;52.332;4.978;2022-08-19T09:15:06;20.80;;;12.85;;
58946;SDS011;44724;52.332;4.978;2022-08-19T09:17:34;17.38;;;11.82;;
58946;SDS011;44724;52.332;4.978;2022-08-19T09:20:02;17.48;;;11.68;;
58946;SDS011;44724;52.332;4.978;2022-08-19T09:22:37;19.10;;;12.05;;
58946;SDS011;44724;52.332;4.978;2022-08-19T09:25:04;18.13;;;11.50;;
58946;SDS011;44724;52.332;4.978;2022-08-19T09:27:32;14.63;;;10.65;;
58946;SDS011;44724;52.332;4.978;2022-08-19T09:29:58;15.02;;;10.65;;
58946;SDS011;44724;52.332;4.978;2022-08-19T09:32:23;14.68;;;9.68;;
58946;SDS011;44724;52.332;4.978;2022-08-19T09:34:52;15.55;;;9.93;;
58946;SDS011;44724;52.332;4.978;2022-08-19T09:37:19;15.20;;;9.98;;
58946;SDS011;44724;52.332;4.978;2022-08-19T09:39:46;11.65;;;7.97;;
58946;SDS011;44724;52.332;4.978;2022-08-19T09:42:12;14.35;;;8.73;;
58946;SDS011;44724;52.332;4.978;2022-08-19T09:44:39;10.23;;;7.88;;
58946;SDS011;44724;52.332;4.978;2022-08-19T09:47:05;10.98;;;8.35;;
58946;SDS011;44724;52.332;4.978;2022-08-19T09:49:31;10.25;;;7.18;;
58946;SDS011;44724;52.332;4.978;2022-08-19T09:51:57;12.07;;;7.07;;
58946;SDS011;44724;52.332;4.978;2022-08-19T09:54:23;9.32;;;6.93;;
58946;SDS011;44724;52.332;4.978;2022-08-19T09:56:49;10.48;;;7.60;;
58946;SDS011;44724;52.332;4.978;2022-08-19T09:59:14;9.82;;;7.20;;
58946;SDS011;44724;52.332;4.978;2022-08-19T10:01:40;9.18;;;6.82;;
58946;SDS011;44724;52.332;4.978;2022-08-19T10:04:05;9.27;;;6.43;;
58946;SDS011;44724;52.332;4.978;2022-08-19T10:06:34;12.23;;;7.13;;
58946;SDS011;44724;52.332;4.978;2022-08-19T10:09:00;11.75;;;6.93;;
58946;SDS011;44724;52.332;4.978;2022-08-19T10:11:29;10.35;;;7.18;;
58946;SDS011;44724;52.332;4.978;2022-08-19T10:13:55;10.63;;;6.82;;
58946;SDS011;44724;52.332;4.978;2022-08-19T10:16:21;8.85;;;6.43;;
58946;SDS011;44724;52.332;4.978;2022-08-19T10:18:48;9.23;;;6.40;;
58946;SDS011;44724;52.332;4.978;2022-08-19T10:21:15;8.95;;;6.30;;
58946;SDS011;44724;52.332;4.978;2022-08-19T10:23:44;10.68;;;6.47;;
58946;SDS011;44724;52.332;4.978;2022-08-19T10:26:11;10.65;;;6.93;;
58946;SDS011;44724;52.332;4.978;2022-08-19T10:28:39;11.55;;;6.65;;
58946;SDS011;44724;52.332;4.978;2022-08-19T10:31:06;9.27;;;6.95;;
58946;SDS011;44724;52.332;4.978;2022-08-19T10:33:33;8.75;;;6.28;;
58946;SDS011;44724;52.332;4.978;2022-08-19T10:36:01;8.93;;;6.53;;
58946;SDS011;44724;52.332;4.978;2022-08-19T10:38:32;7.03;;;6.18;;
58946;SDS011;44724;52.332;4.978;2022-08-19T10:41:05;10.68;;;7.38;;
58946;SDS011;44724;52.332;4.978;2022-08-19T10:43:36;9.27;;;6.72;;
58946;SDS011;44724;52.332;4.978;2022-08-19T10:46:03;11.82;;;7.25;;
58946;SDS011;44724;52.332;4.978;2022-08-19T10:48:31;8.77;;;6.95;;
58946;SDS011;44724;52.332;4.978;2022-08-19T10:50:57;10.63;;;7.43;;
58946;SDS011;44724;52.332;4.978;2022-08-19T10:53:41;10.10;;;6.40;;
58946;SDS011;44724;52.332;4.978;2022-08-19T10:56:07;6.53;;;5.03;;
58946;SDS011;44724;52.332;4.978;2022-08-19T10:58:50;7.35;;;4.75;;
58946;SDS011;44724;52.332;4.978;2022-08-19T11:01:16;7.95;;;5.03;;
58946;SDS011;44724;52.332;4.978;2022-08-19T11:03:41;8.60;;;4.93;;
58946;SDS011;44724;52.332;4.978;2022-08-19T11:06:07;7.93;;;5.40;;
58946;SDS011;44724;52.332;4.978;2022-08-19T11:08:34;8.15;;;4.88;;
58946;SDS011;44724;52.332;4.978;2022-08-19T11:11:03;9.00;;;5.80;;
58946;SDS011;44724;52.332;4.978;2022-08-19T11:13:30;8.23;;;5.40;;
58946;SDS011;44724;52.332;4.978;2022-08-19T11:16:05;8.38;;;5.38;;
58946;SDS011;44724;52.332;4.978;2022-08-19T11:18:34;9.05;;;5.60;;
58946;SDS011;44724;52.332;4.978;2022-08-19T11:21:14;8.10;;;5.10;;
58946;SDS011;44724;52.332;4.978;2022-08-19T11:23:44;5.88;;;4.30;;
58946;SDS011;44724;52.332;4.978;2022-08-19T11:26:15;4.95;;;3.53;;
58946;SDS011;44724;52.332;4.978;2022-08-19T11:28:42;7.40;;;4.05;;
58946;SDS011;44724;52.332;4.978;2022-08-19T11:31:11;5.65;;;3.22;;
58946;SDS011;44724;52.332;4.978;2022-08-19T11:33:43;6.82;;;4.07;;
58946;SDS011;44724;52.332;4.978;2022-08-19T11:36:09;5.97;;;3.55;;
58946;SDS011;44724;52.332;4.978;2022-08-19T11:38:38;4.65;;;3.33;;
58946;SDS011;44724;52.332;4.978;2022-08-19T11:41:05;5.53;;;3.90;;
58946;SDS011;44724;52.332;4.978;2022-08-19T11:43:34;9.20;;;3.72;;
58946;SDS011;44724;52.332;4.978;2022-08-19T11:46:04;11.20;;;4.13;;
58946;SDS011;44724;52.332;4.978;2022-08-19T11:48:31;6.70;;;4.65;;
58946;SDS011;44724;52.332;4.978;2022-08-19T11:50:57;7.88;;;4.25;;
58946;SDS011;44724;52.332;4.978;2022-08-19T11:53:23;5.40;;;4.18;;
58946;SDS011;44724;52.332;4.978;2022-08-19T11:55:48;6.90;;;4.15;;
58946;SDS011;44724;52.332;4.978;2022-08-19T11:58:16;5.47;;;3.65;;
58946;SDS011;44724;52.332;4.978;2022-08-19T12:00:42;7.43;;;4.70;;
58946;SDS011;44724;52.332;4.978;2022-08-19T12:03:13;9.60;;;4.53;;
58946;SDS011;44724;52.332;4.978;2022-08-19T12:05:39;4.75;;;3.38;;
58946;SDS011;44724;52.332;4.978;2022-08-19T12:08:06;6.32;;;3.80;;
58946;SDS011;44724;52.332;4.978;2022-08-19T12:10:32;5.28;;;3.88;;
58946;SDS011;44724;52.332;4.978;2022-08-19T12:12:58;6.28;;;4.00;;
58946;SDS011;44724;52.332;4.978;2022-08-19T12:15:25;6.97;;;3.40;;
58946;SDS011;44724;52.332;4.978;2022-08-19T12:17:52;5.97;;;3.88;;
58946;SDS011;44724;52.332;4.978;2022-08-19T12:20:20;7.18;;;3.42;;
58946;SDS011;44724;52.332;4.978;2022-08-19T12:22:45;10.00;;;3.38;;
58946;SDS011;44724;52.332;4.978;2022-08-19T12:25:11;4.80;;;3.10;;
58946;SDS011;44724;52.332;4.978;2022-08-19T12:27:37;5.18;;;3.15;;
58946;SDS011;44724;52.332;4.978;2022-08-19T12:30:04;6.75;;;2.88;;
58946;SDS011;44724;52.332;4.978;2022-08-19T12:32:32;4.00;;;2.63;;
58946;SDS011;44724;52.332;4.978;2022-08-19T12:34:59;5.22;;;2.95;;
58946;SDS011;44724;52.332;4.978;2022-08-19T12:37:24;4.78;;;2.50;;
58946;SDS011;44724;52.332;4.978;2022-08-19T12:39:49;5.68;;;3.17;;
58946;SDS011;44724;52.332;4.978;2022-08-19T12:42:16;3.50;;;2.22;;
58946;SDS011;44724;52.332;4.978;2022-08-19T12:44:42;5.38;;;2.10;;
58946;SDS011;44724;52.332;4.978;2022-08-19T12:47:09;5.50;;;2.20;;
58946;SDS011;44724;52.332;4.978;2022-08-19T12:49:38;9.32;;;2.40;;
58946;SDS011;44724;52.332;4.978;2022-08-19T12:52:04;5.88;;;1.95;;
58946;SDS011;44724;52.332;4.978;2022-08-19T12:54:32;4.45;;;2.65;;
58946;SDS011;44724;52.332;4.978;2022-08-19T12:56:58;3.25;;;1.80;;
58946;SDS011;44724;52.332;4.978;2022-08-19T12:59:24;3.80;;;2.00;;
58946;SDS011;44724;52.332;4.978;2022-08-19T13:01:50;2.97;;;1.60;;
58946;SDS011;44724;52.332;4.978;2022-08-19T13:04:15;3.33;;;2.00;;
58946;SDS011;44724;52.332;4.978;2022-08-19T13:06:41;2.80;;;1.60;;
58946;SDS011;44724;52.332;4.978;2022-08-19T13:09:07;3.45;;;1.90;;
58946;SDS011;44724;52.332;4.978;2022-08-19T13:11:32;1.80;;;1.40;;
58946;SDS011;44724;52.332;4.978;2022-08-19T13:13:59;3.28;;;2.05;;
58946;SDS011;44724;52.332;4.978;2022-08-19T13:16:25;2.63;;;1.55;;
58946;SDS011;44724;52.332;4.978;2022-08-19T13:18:53;2.35;;;1.48;;
58946;SDS011;44724;52.332;4.978;2022-08-19T13:21:20;2.00;;;1.50;;
58946;SDS011;44724;52.332;4.978;2022-08-19T13:23:47;2.22;;;1.63;;
58946;SDS011;44724;52.332;4.978;2022-08-19T13:26:13;2.35;;;1.63;;
58946;SDS011;44724;52.332;4.978;2022-08-19T13:28:40;2.88;;;1.10;;
58946;SDS011;44724;52.332;4.978;2022-08-19T13:31:25;2.25;;;1.48;;
58946;SDS011;44724;52.332;4.978;2022-08-19T13:34:11;2.17;;;1.60;;
58946;SDS011;44724;52.332;4.978;2022-08-19T13:36:37;1.80;;;1.20;;
58946;SDS011;44724;52.332;4.978;2022-08-19T13:39:04;1.98;;;1.23;;
58946;SDS011;44724;52.332;4.978;2022-08-19T13:41:30;3.00;;;1.60;;
58946;SDS011;44724;52.332;4.978;2022-08-19T13:43:56;1.77;;;1.38;;
58946;SDS011;44724;52.332;4.978;2022-08-19T13:46:22;1.58;;;1.27;;
58946;SDS011;44724;52.332;4.978;2022-08-19T13:48:47;3.67;;;2.08;;
58946;SDS011;44724;52.332;4.978;2022-08-19T13:51:13;1.75;;;1.23;;
58946;SDS011;44724;52.332;4.978;2022-08-19T13:53:41;2.00;;;1.25;;
58946;SDS011;44724;52.332;4.978;2022-08-19T13:56:08;2.03;;;1.27;;
58946;SDS011;44724;52.332;4.978;2022-08-19T13:58:36;2.40;;;1.73;;
58946;SDS011;44724;52.332;4.978;2022-08-19T14:01:02;3.83;;;2.20;;
58946;SDS011;44724;52.332;4.978;2022-08-19T14:03:28;2.70;;;1.60;;
58946;SDS011;44724;52.332;4.978;2022-08-19T14:05:55;2.15;;;1.55;;
58946;SDS011;44724;52.332;4.978;2022-08-19T14:08:20;2.72;;;2.00;;
58946;SDS011;44724;52.332;4.978;2022-08-19T14:10:45;2.40;;;1.58;;
58946;SDS011;44724;52.332;4.978;2022-08-19T14:13:13;3.45;;;1.70;;
58946;SDS011;44724;52.332;4.978;2022-08-19T14:15:40;2.58;;;1.80;;
58946;SDS011;44724;52.332;4.978;2022-08-19T14:18:06;3.72;;;1.60;;
58946;SDS011;44724;52.332;4.978;2022-08-19T14:20:33;1.50;;;1.40;;
58946;SDS011;44724;52.332;4.978;2022-08-19T14:22:59;3.45;;;1.50;;
58946;SDS011;44724;52.332;4.978;2022-08-19T14:25:26;2.38;;;1.42;;
58946;SDS011;44724;52.332;4.978;2022-08-19T14:27:54;2.80;;;1.70;;
58946;SDS011;44724;52.332;4.978;2022-08-19T14:30:21;4.47;;;2.30;;
58946;SDS011;44724;52.332;4.978;2022-08-19T14:32:52;2.42;;;1.63;;
58946;SDS011;44724;52.332;4.978;2022-08-19T14:35:19;7.35;;;2.80;;
58946;SDS011;44724;52.332;4.978;2022-08-19T14:37:47;2.15;;;1.60;;
58946;SDS011;44724;52.332;4.978;2022-08-19T14:40:15;1.70;;;1.60;;
58946;SDS011;44724;52.332;4.978;2022-08-19T14:42:42;4.57;;;2.47;;
58946;SDS011;44724;52.332;4.978;2022-08-19T14:45:09;2.97;;;1.63;;
58946;SDS011;44724;52.332;4.978;2022-08-19T14:47:35;2.40;;;1.50;;